sensor_id;sensor_type;location;lat;lon;timestamp;P1;durP1;ratioP1;P2;durP2;ratioP2
72325;SDS011;60278;47.980;18.780;2022-08-20T00:02:58;19.27;;;8.40;;
72325;SDS011;60278;47.980;18.780;2022-08-20T00:06:32;19.50;;;7.60;;
72325;SDS011;60278;47.980;18.780;2022-08-20T00:10:04;17.45;;;7.97;;
72325;SDS011;60278;47.980;18.780;2022-08-20T00:13:42;18.30;;;8.15;;
72325;SDS011;60278;47.980;18.780;2022-08-20T00:17:18;17.47;;;8.67;;
72325;SDS011;60278;47.980;18.780;2022-08-20T00:20:50;28.45;;;8.80;;
72325;SDS011;60278;47.980;18.780;2022-08-20T00:24:22;19.13;;;7.72;;
72325;SDS011;60278;47.980;18.780;2022-08-20T00:27:54;18.57;;;8.30;;
72325;SDS011;60278;47.980;18.780;2022-08-20T00:31:26;20.13;;;7.70;;
72325;SDS011;60278;47.980;18.780;2022-08-20T00:34:57;19.80;;;8.27;;
72325;SDS011;60278;47.980;18.780;2022-08-20T00:38:28;14.95;;;8.05;;
72325;SDS011;60278;47.980;18.780;2022-08-20T00:42:01;22.03;;;8.23;;
72325;SDS011;60278;47.980;18.780;2022-08-20T00:45:33;19.33;;;8.37;;
72325;SDS011;60278;47.980;18.780;2022-08-20T00:49:06;29.13;;;8.40;;
72325;SDS011;60278;47.980;18.780;2022-08-20T00:52:39;20.25;;;8.65;;
72325;SDS011;60278;47.980;18.780;2022-08-20T00:56:14;19.40;;;8.67;;
72325;SDS011;60278;47.980;18.780;2022-08-20T00:59:45;17.77;;;8.60;;
72325;SDS011;60278;47.980;18.780;2022-08-20T01:03:18;19.70;;;8.85;;
72325;SDS011;60278;47.980;18.780;2022-08-20T01:06:50;21.45;;;7.93;;
72325;SDS011;60278;47.980;18.780;2022-08-20T01:10:23;18.67;;;9.33;;
72325;SDS011;60278;47.980;18.780;2022-08-20T01:13:57;19.77;;;8.70;;
72325;SDS011;60278;47.980;18.780;2022-08-20T01:17:30;23.85;;;9.52;;
72325;SDS011;60278;47.980;18.780;2022-08-20T01:21:04;22.52;;;9.90;;
72325;SDS011;60278;47.980;18.780;2022-08-20T01:24:37;16.13;;;8.80;;
72325;SDS011;60278;47.980;18.780;2022-08-20T01:28:12;18.33;;;9.73;;
72325;SDS011;60278;47.980;18.780;2022-08-20T01:31:45;20.60;;;10.60;;
72325;SDS011;60278;47.980;18.780;2022-08-20T01:35:20;24.33;;;9.07;;
72325;SDS011;60278;47.980;18.780;2022-08-20T01:38:53;21.07;;;9.57;;
72325;SDS011;60278;47.980;18.780;2022-08-20T01:42:29;25.50;;;9.32;;
72325;SDS011;60278;47.980;18.780;2022-08-20T01:46:06;19.17;;;10.65;;
72325;SDS011;60278;47.980;18.780;2022-08-20T01:49:43;22.50;;;10.67;;
72325;SDS011;60278;47.980;18.780;2022-08-20T01:53:17;22.93;;;10.90;;
72325;SDS011;60278;47.980;18.780;2022-08-20T01:56:59;18.58;;;10.38;;
72325;SDS011;60278;47.980;18.780;2022-08-20T02:00:34;21.73;;;10.25;;
72325;SDS011;60278;47.980;18.780;2022-08-20T02:04:06;19.87;;;9.40;;
72325;SDS011;60278;47.980;18.780;2022-08-20T02:07:39;20.52;;;10.00;;
72325;SDS011;60278;47.980;18.780;2022-08-20T02:11:10;22.15;;;9.93;;
72325;SDS011;60278;47.980;18.780;2022-08-20T02:14:43;21.92;;;9.57;;
72325;SDS011;60278;47.980;18.780;2022-08-20T02:18:17;16.97;;;8.63;;
72325;SDS011;60278;47.980;18.780;2022-08-20T02:21:51;17.77;;;10.02;;
72325;SDS011;60278;47.980;18.780;2022-08-20T02:25:26;20.02;;;8.52;;
72325;SDS011;60278;47.980;18.780;2022-08-20T02:29:03;20.70;;;8.90;;
72325;SDS011;60278;47.980;18.780;2022-08-20T02:32:37;17.10;;;9.07;;
72325;SDS011;60278;47.980;18.780;2022-08-20T02:36:08;16.77;;;9.65;;
72325;SDS011;60278;47.980;18.780;2022-08-20T02:39:42;22.77;;;12.43;;
72325;SDS011;60278;47.980;18.780;2022-08-20T02:43:13;21.43;;;10.53;;
72325;SDS011;60278;47.980;18.780;2022-08-20T02:46:47;21.08;;;11.48;;
72325;SDS011;60278;47.980;18.780;2022-08-20T02:50:20;17.98;;;10.10;;
72325;SDS011;60278;47.980;18.780;2022-08-20T02:53:53;18.15;;;10.43;;
72325;SDS011;60278;47.980;18.780;2022-08-20T02:57:25;19.33;;;10.83;;
72325;SDS011;60278;47.980;18.780;2022-08-20T03:00:58;22.25;;;10.55;;
72325;SDS011;60278;47.980;18.780;2022-08-20T03:04:29;19.98;;;10.15;;
72325;SDS011;60278;47.980;18.780;2022-08-20T03:08:00;21.80;;;9.80;;
72325;SDS011;60278;47.980;18.780;2022-08-20T03:11:32;17.50;;;8.97;;
72325;SDS011;60278;47.980;18.780;2022-08-20T03:15:05;17.10;;;8.65;;
72325;SDS011;60278;47.980;18.780;2022-08-20T03:18:42;22.05;;;8.40;;
72325;SDS011;60278;47.980;18.780;2022-08-20T03:22:14;19.73;;;9.13;;
72325;SDS011;60278;47.980;18.780;2022-08-20T03:25:46;16.10;;;8.90;;
72325;SDS011;60278;47.980;18.780;2022-08-20T03:29:17;17.98;;;8.95;;
72325;SDS011;60278;47.980;18.780;2022-08-20T03:32:48;24.40;;;9.50;;
72325;SDS011;60278;47.980;18.780;2022-08-20T03:36:21;21.17;;;8.67;;
72325;SDS011;60278;47.980;18.780;2022-08-20T03:39:53;15.45;;;7.13;;
72325;SDS011;60278;47.980;18.780;2022-08-20T03:43:24;19.90;;;8.85;;
72325;SDS011;60278;47.980;18.780;2022-08-20T03:46:55;17.17;;;8.37;;
72325;SDS011;60278;47.980;18.780;2022-08-20T03:50:29;15.15;;;7.40;;
72325;SDS011;60278;47.980;18.780;2022-08-20T03:54:01;14.95;;;7.43;;
72325;SDS011;60278;47.980;18.780;2022-08-20T03:57:33;19.58;;;9.63;;
72325;SDS011;60278;47.980;18.780;2022-08-20T04:01:05;20.57;;;9.30;;
72325;SDS011;60278;47.980;18.780;2022-08-20T04:04:37;17.73;;;9.75;;
72325;SDS011;60278;47.980;18.780;2022-08-20T04:08:14;16.88;;;9.40;;
72325;SDS011;60278;47.980;18.780;2022-08-20T04:11:46;17.17;;;10.53;;
72325;SDS011;60278;47.980;18.780;2022-08-20T04:15:19;21.50;;;10.57;;
72325;SDS011;60278;47.980;18.780;2022-08-20T04:18:52;23.83;;;10.65;;
72325;SDS011;60278;47.980;18.780;2022-08-20T04:22:23;22.40;;;11.18;;
72325;SDS011;60278;47.980;18.780;2022-08-20T04:25:54;26.87;;;12.87;;
72325;SDS011;60278;47.980;18.780;2022-08-20T04:29:25;21.25;;;10.90;;
72325;SDS011;60278;47.980;18.780;2022-08-20T04:32:57;23.20;;;10.95;;
72325;SDS011;60278;47.980;18.780;2022-08-20T04:36:29;22.02;;;11.45;;
72325;SDS011;60278;47.980;18.780;2022-08-20T04:40:07;24.37;;;12.03;;
72325;SDS011;60278;47.980;18.780;2022-08-20T04:44:03;25.98;;;12.23;;
72325;SDS011;60278;47.980;18.780;2022-08-20T04:47:34;24.58;;;11.25;;
72325;SDS011;60278;47.980;18.780;2022-08-20T04:51:06;19.33;;;11.47;;
72325;SDS011;60278;47.980;18.780;2022-08-20T04:54:38;21.67;;;11.13;;
72325;SDS011;60278;47.980;18.780;2022-08-20T04:58:10;21.38;;;10.93;;
72325;SDS011;60278;47.980;18.780;2022-08-20T05:01:44;22.15;;;11.02;;
72325;SDS011;60278;47.980;18.780;2022-08-20T05:05:15;17.30;;;10.87;;
72325;SDS011;60278;47.980;18.780;2022-08-20T05:08:46;23.50;;;10.48;;
72325;SDS011;60278;47.980;18.780;2022-08-20T05:12:17;19.70;;;11.18;;
72325;SDS011;60278;47.980;18.780;2022-08-20T05:15:49;23.63;;;11.15;;
72325;SDS011;60278;47.980;18.780;2022-08-20T05:19:20;21.13;;;10.30;;
72325;SDS011;60278;47.980;18.780;2022-08-20T05:22:51;22.75;;;10.77;;
72325;SDS011;60278;47.980;18.780;2022-08-20T05:26:23;17.02;;;9.18;;
72325;SDS011;60278;47.980;18.780;2022-08-20T05:30:00;19.53;;;9.73;;
72325;SDS011;60278;47.980;18.780;2022-08-20T05:33:39;16.00;;;7.83;;
72325;SDS011;60278;47.980;18.780;2022-08-20T05:37:10;22.38;;;8.30;;
72325;SDS011;60278;47.980;18.780;2022-08-20T05:40:41;17.55;;;8.10;;
72325;SDS011;60278;47.980;18.780;2022-08-20T05:44:12;16.57;;;7.87;;
72325;SDS011;60278;47.980;18.780;2022-08-20T05:47:44;18.93;;;7.30;;
72325;SDS011;60278;47.980;18.780;2022-08-20T05:51:17;14.15;;;7.07;;
72325;SDS011;60278;47.980;18.780;2022-08-20T05:54:48;17.48;;;7.13;;
72325;SDS011;60278;47.980;18.780;2022-08-20T05:58:21;17.40;;;6.57;;
72325;SDS011;60278;47.980;18.780;2022-08-20T06:01:54;11.55;;;6.18;;
72325;SDS011;60278;47.980;18.780;2022-08-20T06:05:25;18.02;;;7.93;;
72325;SDS011;60278;47.980;18.780;2022-08-20T06:08:57;19.08;;;6.85;;
72325;SDS011;60278;47.980;18.780;2022-08-20T06:12:28;16.77;;;7.57;;
72325;SDS011;60278;47.980;18.780;2022-08-20T06:15:59;17.33;;;8.07;;
72325;SDS011;60278;47.980;18.780;2022-08-20T06:19:31;19.85;;;9.77;;
72325;SDS011;60278;47.980;18.780;2022-08-20T06:23:03;22.73;;;11.13;;
72325;SDS011;60278;47.980;18.780;2022-08-20T06:26:35;20.53;;;10.10;;
72325;SDS011;60278;47.980;18.780;2022-08-20T06:30:07;22.25;;;10.13;;
72325;SDS011;60278;47.980;18.780;2022-08-20T06:33:42;23.58;;;9.77;;
72325;SDS011;60278;47.980;18.780;2022-08-20T06:37:14;18.57;;;9.80;;
72325;SDS011;60278;47.980;18.780;2022-08-20T06:40:46;20.63;;;9.10;;
72325;SDS011;60278;47.980;18.780;2022-08-20T06:44:17;22.67;;;9.82;;
72325;SDS011;60278;47.980;18.780;2022-08-20T06:47:49;19.63;;;8.95;;
72325;SDS011;60278;47.980;18.780;2022-08-20T06:51:20;16.03;;;9.23;;
72325;SDS011;60278;47.980;18.780;2022-08-20T06:54:52;22.57;;;9.87;;
72325;SDS011;60278;47.980;18.780;2022-08-20T06:58:24;18.02;;;9.98;;
72325;SDS011;60278;47.980;18.780;2022-08-20T07:01:56;19.00;;;9.48;;
72325;SDS011;60278;47.980;18.780;2022-08-20T07:05:28;24.13;;;9.83;;
72325;SDS011;60278;47.980;18.780;2022-08-20T07:09:00;20.93;;;9.73;;
72325;SDS011;60278;47.980;18.780;2022-08-20T07:12:31;23.88;;;10.60;;
72325;SDS011;60278;47.980;18.780;2022-08-20T07:16:04;20.08;;;9.98;;
72325;SDS011;60278;47.980;18.780;2022-08-20T07:19:35;17.43;;;9.37;;
72325;SDS011;60278;47.980;18.780;2022-08-20T07:23:07;18.30;;;10.53;;
72325;SDS011;60278;47.980;18.780;2022-08-20T07:26:40;19.85;;;10.82;;
72325;SDS011;60278;47.980;18.780;2022-08-20T07:30:13;20.00;;;10.10;;
72325;SDS011;60278;47.980;18.780;2022-08-20T07:34:05;24.43;;;10.10;;
72325;SDS011;60278;47.980;18.780;2022-08-20T07:37:38;17.10;;;10.60;;
72325;SDS011;60278;47.980;18.780;2022-08-20T07:41:11;22.08;;;11.48;;
72325;SDS011;60278;47.980;18.780;2022-08-20T07:44:44;19.50;;;11.55;;
72325;SDS011;60278;47.980;18.780;2022-08-20T07:48:15;21.33;;;13.40;;
72325;SDS011;60278;47.980;18.780;2022-08-20T07:51:47;25.10;;;12.63;;
72325;SDS011;60278;47.980;18.780;2022-08-20T07:55:18;27.48;;;13.55;;
72325;SDS011;60278;47.980;18.780;2022-08-20T07:58:52;31.02;;;14.88;;
72325;SDS011;60278;47.980;18.780;2022-08-20T08:02:25;24.30;;;13.10;;
72325;SDS011;60278;47.980;18.780;2022-08-20T08:05:56;24.57;;;14.67;;
72325;SDS011;60278;47.980;18.780;2022-08-20T08:09:28;26.05;;;14.70;;
72325;SDS011;60278;47.980;18.780;2022-08-20T08:12:59;20.67;;;12.95;;
72325;SDS011;60278;47.980;18.780;2022-08-20T08:16:33;25.70;;;12.67;;
72325;SDS011;60278;47.980;18.780;2022-08-20T08:20:06;23.70;;;12.03;;
72325;SDS011;60278;47.980;18.780;2022-08-20T08:23:38;23.77;;;13.07;;
72325;SDS011;60278;47.980;18.780;2022-08-20T08:27:14;25.50;;;13.07;;
72325;SDS011;60278;47.980;18.780;2022-08-20T08:30:48;29.13;;;13.02;;
72325;SDS011;60278;47.980;18.780;2022-08-20T08:34:19;26.30;;;13.33;;
72325;SDS011;60278;47.980;18.780;2022-08-20T08:37:51;26.77;;;14.10;;
72325;SDS011;60278;47.980;18.780;2022-08-20T08:41:34;25.00;;;14.35;;
72325;SDS011;60278;47.980;18.780;2022-08-20T08:45:07;25.10;;;14.40;;
72325;SDS011;60278;47.980;18.780;2022-08-20T08:48:41;25.30;;;13.33;;
72325;SDS011;60278;47.980;18.780;2022-08-20T08:52:19;24.88;;;12.63;;
72325;SDS011;60278;47.980;18.780;2022-08-20T08:55:53;21.42;;;12.85;;
72325;SDS011;60278;47.980;18.780;2022-08-20T08:59:26;26.63;;;11.90;;
72325;SDS011;60278;47.980;18.780;2022-08-20T09:03:09;21.27;;;12.10;;
72325;SDS011;60278;47.980;18.780;2022-08-20T09:06:45;23.27;;;12.27;;
72325;SDS011;60278;47.980;18.780;2022-08-20T09:10:16;23.58;;;12.40;;
72325;SDS011;60278;47.980;18.780;2022-08-20T09:13:48;25.13;;;12.10;;
72325;SDS011;60278;47.980;18.780;2022-08-20T09:17:20;23.53;;;13.10;;
72325;SDS011;60278;47.980;18.780;2022-08-20T09:20:52;19.40;;;12.30;;
72325;SDS011;60278;47.980;18.780;2022-08-20T09:24:23;26.35;;;12.50;;
72325;SDS011;60278;47.980;18.780;2022-08-20T09:27:54;19.73;;;11.73;;
72325;SDS011;60278;47.980;18.780;2022-08-20T09:31:25;23.90;;;12.73;;
72325;SDS011;60278;47.980;18.780;2022-08-20T09:34:57;30.85;;;13.52;;
72325;SDS011;60278;47.980;18.780;2022-08-20T09:38:29;20.77;;;12.82;;
72325;SDS011;60278;47.980;18.780;2022-08-20T09:45:42;31.73;;;15.57;;
72325;SDS011;60278;47.980;18.780;2022-08-20T09:49:13;50.55;;;20.20;;
72325;SDS011;60278;47.980;18.780;2022-08-20T09:52:45;39.33;;;16.67;;
72325;SDS011;60278;47.980;18.780;2022-08-20T09:56:18;34.17;;;18.40;;
72325;SDS011;60278;47.980;18.780;2022-08-20T09:59:54;28.20;;;16.77;;
72325;SDS011;60278;47.980;18.780;2022-08-20T10:03:28;25.08;;;16.42;;
72325;SDS011;60278;47.980;18.780;2022-08-20T10:06:59;33.47;;;15.00;;
72325;SDS011;60278;47.980;18.780;2022-08-20T10:10:30;27.53;;;14.67;;
72325;SDS011;60278;47.980;18.780;2022-08-20T10:14:01;31.25;;;16.00;;
72325;SDS011;60278;47.980;18.780;2022-08-20T10:17:35;30.98;;;17.27;;
72325;SDS011;60278;47.980;18.780;2022-08-20T10:21:11;23.10;;;13.33;;
72325;SDS011;60278;47.980;18.780;2022-08-20T10:24:42;32.72;;;16.48;;
72325;SDS011;60278;47.980;18.780;2022-08-20T10:28:13;30.95;;;16.80;;
72325;SDS011;60278;47.980;18.780;2022-08-20T10:31:44;25.52;;;14.07;;
72325;SDS011;60278;47.980;18.780;2022-08-20T10:35:15;28.17;;;15.27;;
72325;SDS011;60278;47.980;18.780;2022-08-20T10:38:47;29.73;;;15.48;;
72325;SDS011;60278;47.980;18.780;2022-08-20T10:42:19;25.92;;;13.68;;
72325;SDS011;60278;47.980;18.780;2022-08-20T10:45:50;26.90;;;12.40;;
72325;SDS011;60278;47.980;18.780;2022-08-20T10:49:22;21.53;;;12.30;;
72325;SDS011;60278;47.980;18.780;2022-08-20T10:52:53;24.15;;;12.30;;
72325;SDS011;60278;47.980;18.780;2022-08-20T10:56:24;18.90;;;10.27;;
72325;SDS011;60278;47.980;18.780;2022-08-20T10:59:57;17.00;;;8.67;;
72325;SDS011;60278;47.980;18.780;2022-08-20T11:03:28;14.13;;;7.40;;
72325;SDS011;60278;47.980;18.780;2022-08-20T11:07:16;14.15;;;5.75;;
72325;SDS011;60278;47.980;18.780;2022-08-20T11:10:51;17.95;;;6.40;;
72325;SDS011;60278;47.980;18.780;2022-08-20T11:14:22;15.77;;;6.40;;
72325;SDS011;60278;47.980;18.780;2022-08-20T11:17:53;20.58;;;8.07;;
72325;SDS011;60278;47.980;18.780;2022-08-20T11:21:24;18.05;;;7.80;;
72325;SDS011;60278;47.980;18.780;2022-08-20T11:24:55;17.10;;;6.23;;
72325;SDS011;60278;47.980;18.780;2022-08-20T11:28:26;13.27;;;5.93;;
72325;SDS011;60278;47.980;18.780;2022-08-20T11:32:01;14.63;;;5.82;;
72325;SDS011;60278;47.980;18.780;2022-08-20T11:35:33;14.52;;;5.78;;
72325;SDS011;60278;47.980;18.780;2022-08-20T11:39:05;14.10;;;5.57;;
72325;SDS011;60278;47.980;18.780;2022-08-20T11:42:36;14.83;;;4.83;;
72325;SDS011;60278;47.980;18.780;2022-08-20T11:46:07;11.00;;;4.18;;
72325;SDS011;60278;47.980;18.780;2022-08-20T11:49:38;14.73;;;5.03;;
72325;SDS011;60278;47.980;18.780;2022-08-20T11:53:10;13.93;;;4.20;;
72325;SDS011;60278;47.980;18.780;2022-08-20T11:56:41;13.27;;;4.63;;
72325;SDS011;60278;47.980;18.780;2022-08-20T12:00:19;12.85;;;3.72;;
72325;SDS011;60278;47.980;18.780;2022-08-20T12:03:52;13.15;;;4.07;;
72325;SDS011;60278;47.980;18.780;2022-08-20T12:07:23;10.77;;;4.27;;
72325;SDS011;60278;47.980;18.780;2022-08-20T12:10:56;12.50;;;3.78;;
72325;SDS011;60278;47.980;18.780;2022-08-20T12:14:28;9.68;;;4.32;;
72325;SDS011;60278;47.980;18.780;2022-08-20T12:17:59;12.47;;;4.23;;
72325;SDS011;60278;47.980;18.780;2022-08-20T12:21:31;12.70;;;4.20;;
72325;SDS011;60278;47.980;18.780;2022-08-20T12:25:02;11.15;;;3.83;;
72325;SDS011;60278;47.980;18.780;2022-08-20T12:28:34;10.85;;;4.78;;
72325;SDS011;60278;47.980;18.780;2022-08-20T12:32:05;12.13;;;4.37;;
72325;SDS011;60278;47.980;18.780;2022-08-20T12:35:37;11.40;;;4.30;;
72325;SDS011;60278;47.980;18.780;2022-08-20T12:39:08;13.77;;;4.20;;
72325;SDS011;60278;47.980;18.780;2022-08-20T12:42:39;14.27;;;3.85;;
72325;SDS011;60278;47.980;18.780;2022-08-20T12:46:10;12.33;;;3.83;;
72325;SDS011;60278;47.980;18.780;2022-08-20T12:49:42;6.90;;;3.00;;
72325;SDS011;60278;47.980;18.780;2022-08-20T12:53:15;9.82;;;3.58;;
72325;SDS011;60278;47.980;18.780;2022-08-20T12:56:46;6.75;;;2.95;;
72325;SDS011;60278;47.980;18.780;2022-08-20T13:00:22;7.47;;;3.00;;
72325;SDS011;60278;47.980;18.780;2022-08-20T13:03:55;11.33;;;3.20;;
72325;SDS011;60278;47.980;18.780;2022-08-20T13:07:26;11.48;;;3.80;;
72325;SDS011;60278;47.980;18.780;2022-08-20T13:10:57;9.15;;;3.70;;
72325;SDS011;60278;47.980;18.780;2022-08-20T13:14:29;10.20;;;3.30;;
72325;SDS011;60278;47.980;18.780;2022-08-20T13:18:01;11.30;;;3.67;;
72325;SDS011;60278;47.980;18.780;2022-08-20T13:21:33;10.98;;;3.90;;
72325;SDS011;60278;47.980;18.780;2022-08-20T13:25:04;8.75;;;3.50;;
72325;SDS011;60278;47.980;18.780;2022-08-20T13:28:36;10.87;;;4.37;;
72325;SDS011;60278;47.980;18.780;2022-08-20T13:32:07;8.70;;;4.30;;
72325;SDS011;60278;47.980;18.780;2022-08-20T13:35:40;12.27;;;4.40;;
72325;SDS011;60278;47.980;18.780;2022-08-20T13:39:11;8.23;;;3.95;;
72325;SDS011;60278;47.980;18.780;2022-08-20T13:42:42;11.33;;;4.70;;
72325;SDS011;60278;47.980;18.780;2022-08-20T13:46:13;11.67;;;5.30;;
72325;SDS011;60278;47.980;18.780;2022-08-20T13:49:44;14.27;;;4.57;;
72325;SDS011;60278;47.980;18.780;2022-08-20T13:53:16;14.85;;;4.65;;
72325;SDS011;60278;47.980;18.780;2022-08-20T13:56:47;11.53;;;4.10;;
72325;SDS011;60278;47.980;18.780;2022-08-20T14:00:20;9.70;;;4.30;;
72325;SDS011;60278;47.980;18.780;2022-08-20T14:03:59;13.13;;;4.43;;
72325;SDS011;60278;47.980;18.780;2022-08-20T14:07:30;13.45;;;5.18;;
72325;SDS011;60278;47.980;18.780;2022-08-20T14:11:01;12.23;;;4.57;;
72325;SDS011;60278;47.980;18.780;2022-08-20T14:14:32;11.93;;;4.70;;
72325;SDS011;60278;47.980;18.780;2022-08-20T14:18:03;12.02;;;4.82;;
72325;SDS011;60278;47.980;18.780;2022-08-20T14:21:34;11.82;;;5.22;;
72325;SDS011;60278;47.980;18.780;2022-08-20T14:25:06;13.23;;;5.73;;
72325;SDS011;60278;47.980;18.780;2022-08-20T14:28:38;17.88;;;5.78;;
72325;SDS011;60278;47.980;18.780;2022-08-20T14:32:09;14.57;;;5.30;;
72325;SDS011;60278;47.980;18.780;2022-08-20T14:35:41;14.60;;;5.55;;
72325;SDS011;60278;47.980;18.780;2022-08-20T14:39:12;10.77;;;5.57;;
72325;SDS011;60278;47.980;18.780;2022-08-20T14:42:44;15.45;;;6.25;;
72325;SDS011;60278;47.980;18.780;2022-08-20T14:46:15;12.70;;;5.30;;
72325;SDS011;60278;47.980;18.780;2022-08-20T14:49:47;15.37;;;6.17;;
72325;SDS011;60278;47.980;18.780;2022-08-20T14:53:18;14.43;;;5.93;;
72325;SDS011;60278;47.980;18.780;2022-08-20T14:56:50;14.68;;;6.15;;
72325;SDS011;60278;47.980;18.780;2022-08-20T15:00:22;10.65;;;4.90;;
72325;SDS011;60278;47.980;18.780;2022-08-20T15:03:56;12.57;;;5.30;;
72325;SDS011;60278;47.980;18.780;2022-08-20T15:07:29;13.20;;;5.20;;
72325;SDS011;60278;47.980;18.780;2022-08-20T15:11:02;10.45;;;5.10;;
72325;SDS011;60278;47.980;18.780;2022-08-20T15:14:33;12.82;;;6.07;;
72325;SDS011;60278;47.980;18.780;2022-08-20T15:18:05;13.30;;;5.00;;
72325;SDS011;60278;47.980;18.780;2022-08-20T15:21:36;10.70;;;4.90;;
72325;SDS011;60278;47.980;18.780;2022-08-20T15:25:09;14.70;;;4.93;;
72325;SDS011;60278;47.980;18.780;2022-08-20T15:28:42;14.35;;;5.95;;
72325;SDS011;60278;47.980;18.780;2022-08-20T15:32:13;13.27;;;6.67;;
72325;SDS011;60278;47.980;18.780;2022-08-20T15:35:44;13.30;;;6.13;;
72325;SDS011;60278;47.980;18.780;2022-08-20T15:39:16;10.32;;;5.70;;
72325;SDS011;60278;47.980;18.780;2022-08-20T15:42:47;18.85;;;6.43;;
72325;SDS011;60278;47.980;18.780;2022-08-20T15:46:18;14.43;;;5.97;;
72325;SDS011;60278;47.980;18.780;2022-08-20T15:49:49;11.60;;;5.07;;
72325;SDS011;60278;47.980;18.780;2022-08-20T15:53:26;14.40;;;5.95;;
72325;SDS011;60278;47.980;18.780;2022-08-20T15:57:03;12.27;;;6.18;;
72325;SDS011;60278;47.980;18.780;2022-08-20T16:12:23;11.00;;;6.03;;
72325;SDS011;60278;47.980;18.780;2022-08-20T16:16:15;14.53;;;7.47;;
72325;SDS011;60278;47.980;18.780;2022-08-20T16:20:11;12.35;;;5.68;;
72325;SDS011;60278;47.980;18.780;2022-08-20T16:23:54;12.25;;;6.68;;
72325;SDS011;60278;47.980;18.780;2022-08-20T16:27:43;12.25;;;6.03;;
72325;SDS011;60278;47.980;18.780;2022-08-20T16:31:52;12.50;;;5.67;;
72325;SDS011;60278;47.980;18.780;2022-08-20T16:39:07;12.68;;;5.88;;
72325;SDS011;60278;47.980;18.780;2022-08-20T16:42:46;12.63;;;6.03;;
72325;SDS011;60278;47.980;18.780;2022-08-20T16:46:23;19.53;;;6.33;;
72325;SDS011;60278;47.980;18.780;2022-08-20T16:50:14;13.70;;;6.38;;
72325;SDS011;60278;47.980;18.780;2022-08-20T16:53:49;12.45;;;6.30;;
72325;SDS011;60278;47.980;18.780;2022-08-20T16:57:21;10.97;;;6.17;;
72325;SDS011;60278;47.980;18.780;2022-08-20T17:01:02;17.48;;;5.85;;
72325;SDS011;60278;47.980;18.780;2022-08-20T17:04:45;15.50;;;6.50;;
72325;SDS011;60278;47.980;18.780;2022-08-20T17:08:20;14.65;;;7.43;;
72325;SDS011;60278;47.980;18.780;2022-08-20T17:12:10;24.00;;;8.67;;
72325;SDS011;60278;47.980;18.780;2022-08-20T17:16:03;12.63;;;7.55;;
72325;SDS011;60278;47.980;18.780;2022-08-20T17:19:51;21.23;;;7.97;;
72325;SDS011;60278;47.980;18.780;2022-08-20T17:23:25;12.57;;;7.27;;
72325;SDS011;60278;47.980;18.780;2022-08-20T17:27:04;18.17;;;7.80;;
72325;SDS011;60278;47.980;18.780;2022-08-20T17:30:45;13.85;;;7.32;;
72325;SDS011;60278;47.980;18.780;2022-08-20T17:34:21;21.48;;;7.13;;
72325;SDS011;60278;47.980;18.780;2022-08-20T17:38:03;14.97;;;7.57;;
72325;SDS011;60278;47.980;18.780;2022-08-20T17:41:34;19.83;;;8.77;;
72325;SDS011;60278;47.980;18.780;2022-08-20T17:45:23;17.90;;;8.90;;
72325;SDS011;60278;47.980;18.780;2022-08-20T17:48:56;16.02;;;8.75;;
72325;SDS011;60278;47.980;18.780;2022-08-20T17:52:43;20.70;;;9.10;;
72325;SDS011;60278;47.980;18.780;2022-08-20T17:56:22;21.05;;;9.32;;
72325;SDS011;60278;47.980;18.780;2022-08-20T18:00:03;15.45;;;8.20;;
72325;SDS011;60278;47.980;18.780;2022-08-20T18:03:39;16.63;;;8.10;;
72325;SDS011;60278;47.980;18.780;2022-08-20T18:10:53;18.10;;;9.43;;
72325;SDS011;60278;47.980;18.780;2022-08-20T18:18:36;16.03;;;8.57;;
72325;SDS011;60278;47.980;18.780;2022-08-20T18:22:29;12.10;;;8.03;;
72325;SDS011;60278;47.980;18.780;2022-08-20T18:29:43;14.32;;;6.75;;
72325;SDS011;60278;47.980;18.780;2022-08-20T18:33:23;16.57;;;7.33;;
72325;SDS011;60278;47.980;18.780;2022-08-20T18:37:05;16.08;;;6.70;;
72325;SDS011;60278;47.980;18.780;2022-08-20T18:40:50;15.60;;;6.05;;
72325;SDS011;60278;47.980;18.780;2022-08-20T18:44:42;17.40;;;5.97;;
72325;SDS011;60278;47.980;18.780;2022-08-20T18:48:22;15.82;;;6.35;;
72325;SDS011;60278;47.980;18.780;2022-08-20T18:51:55;11.95;;;5.43;;
72325;SDS011;60278;47.980;18.780;2022-08-20T18:55:33;16.17;;;5.90;;
72325;SDS011;60278;47.980;18.780;2022-08-20T18:59:13;9.97;;;5.60;;
72325;SDS011;60278;47.980;18.780;2022-08-20T19:07:18;13.18;;;6.43;;
72325;SDS011;60278;47.980;18.780;2022-08-20T19:14:28;17.73;;;7.20;;
72325;SDS011;60278;47.980;18.780;2022-08-20T19:21:54;17.60;;;7.63;;
72325;SDS011;60278;47.980;18.780;2022-08-20T19:28:59;17.90;;;7.82;;
72325;SDS011;60278;47.980;18.780;2022-08-20T19:32:36;14.57;;;7.63;;
72325;SDS011;60278;47.980;18.780;2022-08-20T19:39:44;21.08;;;8.50;;
72325;SDS011;60278;47.980;18.780;2022-08-20T19:43:17;14.68;;;7.25;;
72325;SDS011;60278;47.980;18.780;2022-08-20T19:46:49;15.73;;;7.23;;
72325;SDS011;60278;47.980;18.780;2022-08-20T19:54:19;15.57;;;7.90;;
72325;SDS011;60278;47.980;18.780;2022-08-20T19:57:54;18.38;;;8.10;;
72325;SDS011;60278;47.980;18.780;2022-08-20T20:01:27;14.93;;;7.60;;
72325;SDS011;60278;47.980;18.780;2022-08-20T20:05:03;15.88;;;8.50;;
72325;SDS011;60278;47.980;18.780;2022-08-20T20:08:43;15.38;;;8.23;;
72325;SDS011;60278;47.980;18.780;2022-08-20T20:12:20;16.23;;;7.70;;
72325;SDS011;60278;47.980;18.780;2022-08-20T20:15:53;15.32;;;7.00;;
72325;SDS011;60278;47.980;18.780;2022-08-20T20:19:25;14.48;;;7.47;;
72325;SDS011;60278;47.980;18.780;2022-08-20T20:22:58;14.77;;;8.18;;
72325;SDS011;60278;47.980;18.780;2022-08-20T20:26:42;13.80;;;7.50;;
72325;SDS011;60278;47.980;18.780;2022-08-20T20:34:07;18.33;;;8.38;;
72325;SDS011;60278;47.980;18.780;2022-08-20T20:37:42;13.73;;;8.57;;
72325;SDS011;60278;47.980;18.780;2022-08-20T20:41:17;11.65;;;7.57;;
72325;SDS011;60278;47.980;18.780;2022-08-20T20:44:51;9.73;;;6.68;;
72325;SDS011;60278;47.980;18.780;2022-08-20T20:48:24;15.60;;;7.35;;
72325;SDS011;60278;47.980;18.780;2022-08-20T20:52:01;14.53;;;7.07;;
72325;SDS011;60278;47.980;18.780;2022-08-20T20:55:33;15.38;;;7.53;;
72325;SDS011;60278;47.980;18.780;2022-08-20T20:59:07;14.18;;;7.88;;
72325;SDS011;60278;47.980;18.780;2022-08-20T21:02:39;11.53;;;6.70;;
72325;SDS011;60278;47.980;18.780;2022-08-20T21:06:11;14.07;;;6.53;;
72325;SDS011;60278;47.980;18.780;2022-08-20T21:09:42;19.05;;;6.50;;
72325;SDS011;60278;47.980;18.780;2022-08-20T21:13:13;10.05;;;6.35;;
72325;SDS011;60278;47.980;18.780;2022-08-20T21:16:45;11.10;;;6.93;;
72325;SDS011;60278;47.980;18.780;2022-08-20T21:20:17;11.80;;;7.30;;
72325;SDS011;60278;47.980;18.780;2022-08-20T21:23:49;11.25;;;6.72;;
72325;SDS011;60278;47.980;18.780;2022-08-20T21:27:21;12.00;;;7.03;;
72325;SDS011;60278;47.980;18.780;2022-08-20T21:30:55;15.73;;;6.80;;
72325;SDS011;60278;47.980;18.780;2022-08-20T21:34:26;13.48;;;6.90;;
72325;SDS011;60278;47.980;18.780;2022-08-20T21:37:57;11.10;;;6.50;;
72325;SDS011;60278;47.980;18.780;2022-08-20T21:41:28;9.37;;;6.07;;
72325;SDS011;60278;47.980;18.780;2022-08-20T21:44:59;10.23;;;5.82;;